Terminal Aerodrome Forecast
Issued by NWS

Home | Current Version | Previous Version | Text Only | Print | Product List | Glossary On
Versions: 1 2 3 4 5 6 7 8 9 10 11 12 13 14 15 16 17 18 19 20
000
FTUS43 KGRB 221200 AAA
TAFMTW
TAF AMD
KMTW 221252Z 2213/2312 18007G14KT 6SM HZ SCT050 BKN200
      WS015/21030KT
     FM221600 19011G21KT P6SM SCT045 BKN200
     FM230000 29013G22KT P6SM SCT050 BKN100
     FM230500 33007KT P6SM SKC=

USA.gov is the U.S. government's official web portal to all federal, state and local government web resources and services.